createdAt,value
2023-03-02T00:01:03.687Z,3.84
2023-03-02T00:03:07.405Z,3.83
2023-03-02T00:05:14.833Z,3.80
2023-03-02T00:07:22.262Z,3.77
2023-03-02T00:09:25.248Z,3.75
2023-03-02T00:11:28.161Z,3.75
2023-03-02T00:13:31.844Z,3.75
2023-03-02T00:15:34.448Z,3.72
2023-03-02T00:17:37.243Z,3.73
2023-03-02T00:19:39.985Z,3.71
2023-03-02T00:21:42.666Z,3.70
2023-03-02T00:23:46.942Z,3.66
2023-03-02T00:25:49.518Z,3.65
2023-03-02T00:27:52.130Z,3.64
2023-03-02T00:29:54.718Z,3.64
2023-03-02T00:31:57.314Z,3.61
2023-03-02T00:34:00.020Z,3.60
2023-03-02T00:36:02.906Z,3.63
2023-03-02T00:38:05.600Z,3.59
2023-03-02T00:40:11.025Z,3.58
2023-03-02T00:42:13.639Z,3.55
2023-03-02T00:44:17.621Z,3.56
2023-03-02T00:46:23.204Z,3.56
2023-03-02T00:48:25.783Z,3.54
2023-03-02T00:50:28.413Z,3.52
2023-03-02T00:52:31.308Z,3.54
2023-03-02T00:54:33.877Z,3.54
2023-03-02T00:56:37.814Z,3.51
2023-03-02T00:58:40.471Z,3.49
2023-03-02T01:00:43.553Z,3.47
2023-03-02T01:02:46.238Z,3.48
2023-03-02T01:04:49.145Z,3.46
2023-03-02T01:06:51.745Z,3.45
2023-03-02T01:08:54.292Z,3.44
2023-03-02T01:10:56.926Z,3.43
2023-03-02T01:13:01.001Z,3.43
2023-03-02T01:15:04.855Z,3.43
2023-03-02T01:17:08.752Z,3.42
2023-03-02T01:19:11.904Z,3.40
2023-03-02T01:21:16.771Z,3.40
2023-03-02T01:23:19.329Z,3.38
2023-03-02T01:25:21.944Z,3.35
2023-03-02T01:27:24.524Z,3.33
2023-03-02T01:29:28.729Z,3.35
2023-03-02T01:31:32.208Z,3.33
2023-03-02T01:33:34.969Z,3.32
2023-03-02T01:35:37.560Z,3.31
2023-03-02T01:37:40.215Z,3.31
2023-03-02T01:39:42.788Z,3.31
2023-03-02T01:41:46.227Z,3.33
2023-03-02T01:43:48.872Z,3.30
2023-03-02T01:45:55.224Z,3.30
2023-03-02T01:47:57.900Z,3.30
2023-03-02T01:50:04.885Z,3.30
2023-03-02T01:52:12.174Z,3.27
2023-03-02T01:54:23.207Z,3.28
2023-03-02T01:56:30.538Z,3.28
2023-03-02T01:58:36.950Z,3.28
2023-03-02T02:00:41.080Z,3.29
2023-03-02T02:02:45.206Z,3.30
2023-03-02T02:04:49.670Z,3.29
2023-03-02T02:06:56.459Z,3.29
2023-03-02T02:08:59.632Z,3.28
2023-03-02T02:11:02.315Z,3.26
2023-03-02T02:13:04.939Z,3.29
2023-03-02T02:15:10.153Z,3.27
2023-03-02T02:17:13.861Z,3.28
2023-03-02T02:19:35.251Z,3.27
2023-03-02T02:21:37.829Z,3.26
2023-03-02T02:23:46.318Z,3.25
2023-03-02T02:26:03.677Z,3.25
2023-03-02T02:28:14.204Z,3.24
2023-03-02T02:30:17.862Z,3.25
2023-03-02T02:32:26.401Z,3.24
2023-03-02T02:34:33.226Z,3.25
2023-03-02T02:36:41.006Z,3.25
2023-03-02T02:38:47.905Z,3.25
2023-03-02T02:40:54.574Z,3.25
2023-03-02T02:42:58.533Z,3.25
2023-03-02T02:45:05.120Z,3.26
2023-03-02T02:47:18.197Z,3.27
2023-03-02T02:49:33.336Z,3.24
2023-03-02T02:51:36.219Z,3.22
2023-03-02T02:53:44.142Z,3.25
2023-03-02T02:55:48.298Z,3.24
2023-03-02T02:57:52.698Z,3.22
2023-03-02T02:59:59.768Z,3.26
2023-03-02T03:02:02.505Z,3.24
2023-03-02T03:04:07.190Z,3.20
2023-03-02T03:06:17.613Z,3.23
2023-03-02T03:08:55.849Z,3.25
2023-03-02T03:10:59.706Z,3.29
2023-03-02T03:13:03.070Z,3.28
2023-03-02T03:15:08.792Z,3.28
2023-03-02T03:17:13.762Z,3.25
2023-03-02T03:19:20.812Z,3.24
2023-03-02T03:21:23.403Z,3.24
2023-03-02T03:23:26.020Z,3.27
2023-03-02T03:25:28.647Z,3.24
2023-03-02T03:27:31.282Z,3.21
2023-03-02T03:29:35.159Z,3.23
2023-03-02T03:31:39.335Z,3.22
2023-03-02T03:33:41.903Z,3.22
2023-03-02T03:35:44.529Z,3.24
2023-03-02T03:37:48.467Z,3.24
2023-03-02T03:39:51.274Z,3.22
2023-03-02T03:41:53.809Z,3.22
2023-03-02T03:43:56.673Z,3.20
2023-03-02T03:45:59.323Z,3.20
2023-03-02T03:48:03.282Z,3.18
2023-03-02T03:50:09.410Z,3.18
2023-03-02T03:52:13.841Z,3.16
2023-03-02T03:54:16.463Z,3.14
2023-03-02T03:56:19.050Z,3.09
2023-03-02T03:58:21.742Z,3.10
2023-03-02T04:00:24.881Z,3.09
2023-03-02T04:02:27.603Z,3.09
2023-03-02T04:04:35.705Z,3.10
2023-03-02T04:06:38.305Z,3.08
2023-03-02T04:08:40.892Z,3.09
2023-03-02T04:10:43.482Z,3.08
2023-03-02T04:12:46.276Z,3.08
2023-03-02T04:14:48.913Z,3.08
2023-03-02T04:16:52.196Z,3.07
2023-03-02T04:18:55.202Z,3.07
2023-03-02T04:20:59.146Z,3.05
2023-03-02T04:23:01.729Z,3.03
2023-03-02T04:25:05.108Z,3.00
2023-03-02T04:27:07.680Z,3.00
2023-03-02T04:29:10.721Z,2.99
2023-03-02T04:31:13.328Z,3.00
2023-03-02T04:33:15.923Z,3.00
2023-03-02T04:35:19.033Z,2.97
2023-03-02T04:37:22.944Z,2.99
2023-03-02T04:39:25.784Z,2.98
2023-03-02T04:41:28.432Z,3.00
2023-03-02T04:43:32.193Z,3.00
2023-03-02T04:45:35.161Z,3.02
2023-03-02T04:47:37.701Z,3.02
2023-03-02T04:49:40.376Z,3.04
2023-03-02T04:51:45.719Z,3.03
2023-03-02T04:53:49.617Z,3.03
2023-03-02T04:55:52.170Z,3.02
2023-03-02T04:57:54.781Z,2.99
2023-03-02T04:59:57.371Z,3.02
2023-03-02T05:02:01.537Z,2.99
2023-03-02T05:04:04.552Z,2.99
2023-03-02T05:06:07.996Z,3.00
2023-03-02T05:08:10.540Z,2.99
2023-03-02T05:10:15.917Z,2.98
2023-03-02T05:12:19.199Z,2.97
2023-03-02T05:14:22.561Z,2.98
2023-03-02T05:16:26.347Z,2.97
2023-03-02T05:18:29.094Z,2.98
2023-03-02T05:20:31.873Z,2.97
2023-03-02T05:22:34.455Z,3.00
2023-03-02T05:24:37.383Z,3.02
2023-03-02T05:26:41.702Z,3.01
2023-03-02T05:28:44.962Z,3.02
2023-03-02T05:30:48.269Z,2.99
2023-03-02T05:32:51.367Z,2.98
2023-03-02T05:34:53.949Z,2.95
2023-03-02T05:36:58.131Z,2.97
2023-03-02T05:39:00.802Z,2.99
2023-03-02T05:41:03.517Z,2.99
2023-03-02T05:43:07.931Z,2.99
2023-03-02T05:45:18.010Z,2.98
2023-03-02T05:47:20.581Z,2.96
2023-03-02T05:49:23.127Z,2.95
2023-03-02T05:51:25.722Z,2.96
2023-03-02T05:53:28.441Z,2.97
2023-03-02T05:55:31.584Z,2.97
2023-03-02T05:57:34.574Z,2.99
2023-03-02T05:59:38.530Z,3.00
2023-03-02T06:01:41.263Z,2.99
2023-03-02T06:03:44.208Z,2.98
2023-03-02T06:05:52.351Z,2.99
2023-03-02T06:07:57.196Z,2.97
2023-03-02T06:09:59.812Z,2.96
2023-03-02T06:12:02.376Z,2.98
2023-03-02T06:14:04.967Z,2.98
2023-03-02T06:16:09.709Z,2.97
2023-03-02T06:18:12.676Z,2.96
2023-03-02T06:20:18.542Z,2.97
2023-03-02T06:22:21.154Z,2.96
2023-03-02T06:24:23.786Z,2.98
2023-03-02T06:26:26.348Z,2.99
2023-03-02T06:28:28.914Z,2.99
2023-03-02T06:30:31.471Z,2.98
2023-03-02T06:32:35.603Z,2.97
2023-03-02T06:34:38.185Z,2.95
2023-03-02T06:36:40.888Z,2.92
2023-03-02T06:38:43.513Z,2.92
2023-03-02T06:40:46.151Z,2.92
2023-03-02T06:42:48.737Z,2.89
2023-03-02T06:44:51.718Z,2.88
2023-03-02T06:46:54.258Z,2.88
2023-03-02T06:48:58.178Z,2.87
2023-03-02T06:51:00.869Z,2.80
2023-03-02T06:53:03.699Z,2.85
2023-03-02T06:55:07.442Z,2.84
2023-03-02T06:57:10.002Z,2.87
2023-03-02T06:59:15.143Z,2.87
2023-03-02T07:01:17.889Z,2.90
2023-03-02T07:03:20.557Z,2.89
2023-03-02T07:05:24.978Z,2.93
2023-03-02T07:07:27.634Z,2.92
2023-03-02T07:09:33.709Z,2.94
2023-03-02T07:11:36.253Z,2.98
2023-03-02T07:13:39.419Z,3.02
2023-03-02T07:15:42.012Z,3.03
2023-03-02T07:17:46.019Z,3.02
2023-03-02T07:19:48.589Z,3.04
2023-03-02T07:21:52.456Z,3.05
2023-03-02T07:23:55.066Z,3.07
2023-03-02T07:25:57.878Z,3.06
2023-03-02T07:28:00.469Z,3.09
2023-03-02T07:30:03.196Z,3.06
2023-03-02T07:32:06.916Z,3.05
2023-03-02T07:34:09.537Z,3.07
2023-03-02T07:36:12.141Z,3.07
2023-03-02T07:38:16.139Z,3.11
2023-03-02T07:40:19.076Z,3.13
2023-03-02T07:42:21.610Z,3.15
2023-03-02T07:44:24.218Z,3.17
2023-03-02T07:46:26.836Z,3.20
2023-03-02T07:48:29.522Z,3.24
2023-03-02T07:50:32.665Z,3.22
2023-03-02T07:52:35.475Z,3.26
2023-03-02T07:54:39.430Z,3.25
2023-03-02T07:56:42.346Z,3.28
2023-03-02T07:58:45.400Z,3.28
2023-03-02T08:00:48.233Z,3.30
2023-03-02T08:02:50.947Z,3.29
2023-03-02T08:04:53.645Z,3.23
2023-03-02T08:06:56.248Z,3.27
2023-03-02T08:09:00.888Z,3.32
2023-03-02T08:11:09.712Z,3.34
2023-03-02T08:13:12.271Z,3.40
2023-03-02T08:15:15.510Z,3.43
2023-03-02T08:17:18.074Z,3.47
2023-03-02T08:19:21.086Z,3.52
2023-03-02T08:21:26.289Z,3.59
2023-03-02T08:23:29.088Z,3.62
2023-03-02T08:25:31.668Z,3.57
2023-03-02T08:27:35.556Z,3.53
2023-03-02T08:29:38.170Z,3.61
2023-03-02T08:31:40.847Z,3.57
2023-03-02T08:33:43.571Z,3.61
2023-03-02T08:35:46.179Z,3.64
2023-03-02T08:37:48.836Z,3.61
2023-03-02T08:39:51.775Z,3.61
2023-03-02T08:41:55.060Z,3.63
2023-03-02T08:43:58.989Z,3.69
2023-03-02T08:46:02.004Z,3.76
2023-03-02T08:48:04.953Z,3.77
2023-03-02T08:50:08.434Z,3.79
2023-03-02T08:52:11.016Z,3.81
2023-03-02T08:54:14.184Z,3.85
2023-03-02T08:56:18.756Z,3.84
2023-03-02T08:58:21.531Z,3.83
2023-03-02T09:00:25.681Z,3.91
2023-03-02T09:02:28.234Z,3.92
2023-03-02T09:04:30.876Z,3.96
2023-03-02T09:06:35.812Z,3.96
2023-03-02T09:08:38.486Z,4.14
2023-03-02T09:10:41.113Z,4.09
2023-03-02T09:12:43.673Z,4.04
2023-03-02T09:14:46.231Z,4.04
2023-03-02T09:16:50.222Z,4.04
2023-03-02T09:18:53.264Z,4.02
2023-03-02T09:20:56.882Z,4.05
2023-03-02T09:22:59.490Z,4.04
2023-03-02T09:25:02.124Z,4.08
2023-03-02T09:27:04.863Z,4.11
2023-03-02T09:29:08.137Z,4.13
2023-03-02T09:31:10.938Z,4.14
2023-03-02T09:33:14.837Z,4.15
2023-03-02T09:35:17.449Z,4.17
2023-03-02T09:37:19.989Z,4.18
2023-03-02T09:39:22.529Z,4.19
2023-03-02T09:42:11.299Z,4.19
2023-03-02T09:44:38.613Z,4.30
2023-03-02T09:46:47.689Z,4.30
2023-03-02T09:49:05.961Z,4.29
2023-03-02T09:51:32.351Z,4.29
2023-03-02T09:53:45.156Z,4.31
2023-03-02T09:55:53.484Z,4.35
2023-03-02T09:57:56.774Z,4.44
2023-03-02T10:00:12.925Z,4.42
2023-03-02T10:02:26.625Z,4.36
2023-03-02T10:04:34.462Z,4.42
2023-03-02T10:06:37.064Z,4.39
2023-03-02T10:08:42.814Z,4.53
2023-03-02T10:10:47.457Z,4.47
2023-03-02T10:13:01.095Z,4.46
2023-03-02T10:15:09.495Z,4.48
2023-03-02T10:17:29.550Z,4.52
2023-03-02T10:19:42.522Z,4.57
2023-03-02T10:21:48.295Z,4.63
2023-03-02T10:23:57.616Z,4.67
2023-03-02T10:26:07.878Z,4.71
2023-03-02T10:28:18.258Z,4.74
2023-03-02T10:30:27.798Z,4.78
2023-03-02T10:32:33.797Z,4.85
2023-03-02T10:34:39.623Z,4.86
2023-03-02T10:36:44.878Z,4.88
2023-03-02T10:38:48.105Z,5.13
2023-03-02T10:40:53.222Z,5.05
2023-03-02T10:42:57.496Z,4.96
2023-03-02T10:45:08.630Z,5.03
2023-03-02T10:47:21.030Z,5.01
2023-03-02T10:49:31.918Z,4.94
2023-03-02T10:51:36.272Z,4.91
2023-03-02T10:53:38.830Z,4.95
2023-03-02T10:55:46.362Z,5.05
2023-03-02T10:58:03.472Z,5.00
2023-03-02T11:00:16.277Z,4.99
2023-03-02T11:02:23.441Z,5.07
2023-03-02T11:04:27.256Z,5.04
2023-03-02T11:06:31.384Z,5.12
2023-03-02T11:08:35.559Z,5.10
2023-03-02T11:10:40.106Z,5.17
2023-03-02T11:12:47.554Z,5.26
2023-03-02T11:14:50.115Z,5.15
2023-03-02T11:16:53.688Z,5.38
2023-03-02T11:18:59.815Z,5.40
2023-03-02T11:21:05.610Z,5.26
2023-03-02T11:23:23.451Z,5.22
2023-03-02T11:25:32.863Z,5.20
2023-03-02T11:27:40.146Z,5.16
2023-03-02T11:29:46.555Z,5.31
2023-03-02T11:31:52.028Z,5.22
2023-03-02T11:34:36.344Z,5.73
2023-03-02T11:36:46.366Z,5.50
2023-03-02T11:38:53.735Z,5.40
2023-03-02T11:41:01.423Z,5.44
2023-03-02T11:43:05.558Z,5.60
2023-03-02T11:45:20.020Z,5.49
2023-03-02T11:47:24.024Z,5.50
2023-03-02T11:49:36.532Z,5.49
2023-03-02T11:51:53.255Z,5.54
2023-03-02T11:54:03.686Z,5.49
2023-03-02T11:56:09.009Z,5.69
2023-03-02T11:58:18.009Z,5.67
2023-03-02T12:00:31.510Z,5.65
2023-03-02T12:02:34.092Z,5.71
2023-03-02T12:04:39.061Z,5.88
2023-03-02T12:06:44.062Z,5.76
2023-03-02T12:08:47.592Z,5.72
2023-03-02T12:10:58.369Z,5.74
2023-03-02T12:13:13.840Z,5.76
2023-03-02T12:15:29.565Z,5.80
2023-03-02T12:17:35.144Z,5.86
2023-03-02T12:19:43.652Z,6.00
2023-03-02T12:21:58.480Z,6.35
2023-03-02T12:24:03.890Z,6.29
2023-03-02T12:26:10.449Z,6.25
2023-03-02T12:28:30.169Z,6.57
2023-03-02T12:30:32.836Z,6.66
2023-03-02T12:32:35.466Z,6.67
2023-03-02T12:34:40.214Z,6.67
2023-03-02T12:36:45.008Z,6.68
2023-03-02T12:38:58.988Z,6.83
2023-03-02T12:41:17.530Z,7.00
2023-03-02T12:43:33.147Z,6.98
2023-03-02T12:45:50.551Z,6.83
2023-03-02T12:48:02.755Z,6.81
2023-03-02T12:50:17.081Z,6.83
2023-03-02T12:52:24.231Z,6.84
2023-03-02T12:54:28.603Z,6.86
2023-03-02T12:56:31.233Z,6.91
2023-03-02T12:58:35.494Z,6.92
2023-03-02T13:00:38.101Z,6.87
2023-03-02T13:02:48.162Z,6.83
2023-03-02T13:04:55.323Z,6.88
2023-03-02T13:06:57.993Z,6.91
2023-03-02T13:09:00.977Z,6.92
2023-03-02T13:11:04.653Z,6.85
2023-03-02T13:13:17.389Z,7.04
2023-03-02T13:15:21.521Z,7.10
2023-03-02T13:17:26.900Z,7.22
2023-03-02T13:19:30.648Z,7.25
2023-03-02T13:21:35.665Z,7.18
2023-03-02T13:23:46.114Z,7.11
2023-03-02T13:25:50.651Z,7.14
2023-03-02T13:27:55.840Z,7.33
2023-03-02T13:30:10.183Z,7.37
2023-03-02T13:32:22.702Z,7.29
2023-03-02T13:34:27.755Z,7.22
2023-03-02T13:36:35.386Z,7.44
2023-03-02T13:38:39.288Z,7.43
2023-03-02T13:40:44.743Z,7.64
2023-03-02T13:42:48.335Z,7.72
2023-03-02T13:44:50.934Z,7.96
2023-03-02T13:46:53.485Z,8.13
2023-03-02T13:49:13.966Z,8.32
2023-03-02T13:51:18.403Z,8.20
2023-03-02T13:53:21.523Z,8.25
2023-03-02T13:55:25.140Z,8.22
2023-03-02T13:57:32.216Z,7.98
2023-03-02T13:59:36.434Z,7.81
2023-03-02T14:01:41.335Z,7.82
2023-03-02T14:03:43.949Z,8.00
2023-03-02T14:05:47.876Z,8.15
2023-03-02T14:07:50.804Z,8.24
2023-03-02T14:09:53.394Z,8.32
2023-03-02T14:11:57.001Z,8.63
2023-03-02T14:13:59.637Z,8.75
2023-03-02T14:16:02.272Z,8.85
2023-03-02T14:18:10.516Z,9.22
2023-03-02T14:20:15.745Z,9.42
2023-03-02T14:22:20.416Z,9.36
2023-03-02T14:24:22.983Z,9.38
2023-03-02T14:26:33.415Z,9.42
2023-03-02T14:28:36.325Z,9.87
2023-03-02T14:30:38.971Z,9.81
2023-03-02T14:32:41.621Z,9.73
2023-03-02T14:34:44.442Z,10.03
2023-03-02T14:36:50.094Z,9.80
2023-03-02T14:38:54.368Z,10.08
2023-03-02T14:40:57.665Z,9.99
2023-03-02T14:43:00.298Z,10.00
2023-03-02T14:45:02.875Z,10.07
2023-03-02T14:47:05.533Z,9.85
2023-03-02T14:49:08.112Z,10.00
2023-03-02T14:51:20.735Z,10.03
2023-03-02T14:53:29.069Z,10.25
2023-03-02T14:55:33.938Z,10.21
2023-03-02T14:57:38.494Z,10.07
2023-03-02T14:59:41.162Z,10.03
2023-03-02T15:01:44.581Z,10.20
2023-03-02T15:03:47.567Z,10.11
2023-03-02T15:06:00.792Z,10.04
2023-03-02T15:08:04.276Z,10.11
2023-03-02T15:10:08.219Z,10.23
2023-03-02T15:12:12.475Z,10.15
2023-03-02T15:14:15.073Z,10.08
2023-03-02T15:16:17.787Z,10.16
2023-03-02T15:18:20.402Z,10.20
2023-03-02T15:20:23.046Z,10.01
2023-03-02T15:22:25.614Z,10.21
2023-03-02T15:24:28.216Z,10.21
2023-03-02T15:26:30.793Z,10.14
2023-03-02T15:28:34.744Z,9.82
2023-03-02T15:30:37.305Z,9.81
2023-03-02T15:32:39.990Z,9.65
2023-03-02T15:34:42.916Z,9.85
2023-03-02T15:36:45.501Z,9.97
2023-03-02T15:38:50.511Z,9.85
2023-03-02T15:40:53.399Z,9.60
2023-03-02T15:42:56.084Z,9.40
2023-03-02T15:45:00.154Z,9.17
2023-03-02T15:47:03.370Z,9.26
2023-03-02T15:49:06.036Z,9.10
2023-03-02T15:51:09.726Z,9.22
2023-03-02T15:53:12.280Z,9.20
2023-03-02T15:55:15.545Z,9.13
2023-03-02T15:57:18.627Z,9.30
2023-03-02T15:59:21.849Z,9.07
2023-03-02T16:01:25.791Z,9.09
2023-03-02T16:03:28.498Z,8.91
2023-03-02T16:05:33.226Z,8.88
2023-03-02T16:07:37.187Z,9.04
2023-03-02T16:09:39.830Z,9.04
2023-03-02T16:11:42.438Z,8.71
2023-03-02T16:13:45.002Z,8.56
2023-03-02T16:15:47.589Z,8.48
2023-03-02T16:17:51.453Z,8.27
2023-03-02T16:19:54.005Z,8.40
2023-03-02T16:21:56.583Z,8.37
2023-03-02T16:24:03.790Z,8.26
2023-03-02T16:26:10.295Z,8.23
2023-03-02T16:28:13.129Z,8.05
2023-03-02T16:30:16.481Z,8.04
2023-03-02T16:32:21.964Z,8.02
2023-03-02T16:34:25.931Z,7.99
2023-03-02T16:36:28.532Z,7.91
2023-03-02T16:38:31.144Z,8.01
2023-03-02T16:40:34.296Z,7.88
2023-03-02T16:42:36.942Z,7.75
2023-03-02T16:44:39.792Z,7.75
2023-03-02T16:46:43.369Z,7.80
2023-03-02T16:48:47.151Z,7.58
2023-03-02T16:50:57.715Z,7.69
2023-03-02T16:53:00.687Z,7.70
2023-03-02T16:55:03.707Z,7.66
2023-03-02T16:57:06.317Z,7.56
2023-03-02T16:59:08.864Z,7.32
2023-03-02T17:01:13.449Z,7.21
2023-03-02T17:03:16.295Z,7.19
2023-03-02T17:05:21.404Z,7.10
2023-03-02T17:07:25.369Z,7.12
2023-03-02T17:09:28.264Z,6.98
2023-03-02T17:11:31.819Z,7.01
2023-03-02T17:13:34.521Z,6.94
2023-03-02T17:15:37.127Z,7.07
2023-03-02T17:17:39.852Z,6.88
2023-03-02T17:19:42.402Z,6.77
2023-03-02T17:21:44.965Z,6.73
2023-03-02T17:23:49.302Z,7.05
2023-03-02T17:25:51.947Z,6.78
2023-03-02T17:27:54.554Z,6.85
2023-03-02T17:29:57.106Z,6.77
2023-03-02T17:31:59.786Z,6.60
2023-03-02T17:34:04.649Z,6.54
2023-03-02T17:36:09.681Z,6.53
2023-03-02T17:38:12.253Z,6.42
2023-03-02T17:40:17.478Z,6.45
2023-03-02T17:42:20.466Z,6.35
2023-03-02T17:44:23.128Z,6.33
2023-03-02T17:46:27.603Z,6.25
2023-03-02T17:48:30.276Z,6.23
2023-03-02T17:50:32.896Z,6.27
2023-03-02T17:52:35.451Z,6.19
2023-03-02T17:54:38.007Z,6.13
2023-03-02T17:56:42.461Z,6.10
2023-03-02T17:58:45.576Z,6.10
2023-03-02T18:00:48.181Z,6.04
2023-03-02T18:02:51.562Z,6.07
2023-03-02T18:04:54.172Z,6.06
2023-03-02T18:06:56.804Z,6.05
2023-03-02T18:08:59.370Z,6.01
2023-03-02T18:11:01.966Z,5.95
2023-03-02T18:13:05.933Z,5.86
2023-03-02T18:15:09.402Z,6.06
2023-03-02T18:17:12.452Z,6.06
2023-03-02T18:19:15.027Z,5.89
2023-03-02T18:21:17.917Z,5.82
2023-03-02T18:23:21.425Z,5.82
2023-03-02T18:25:24.294Z,5.80
2023-03-02T18:27:27.029Z,5.71
2023-03-02T18:29:30.968Z,5.67
2023-03-02T18:31:34.441Z,5.71
2023-03-02T18:33:37.067Z,5.66
2023-03-02T18:35:39.983Z,5.62
2023-03-02T18:37:43.059Z,5.57
2023-03-02T18:39:45.786Z,5.54
2023-03-02T18:41:48.477Z,5.53
2023-03-02T18:43:51.893Z,5.56
2023-03-02T18:45:56.872Z,5.52
2023-03-02T18:48:00.982Z,5.55
2023-03-02T18:50:05.362Z,5.54
2023-03-02T18:52:09.775Z,5.45
2023-03-02T18:54:12.628Z,5.43
2023-03-02T18:56:15.659Z,5.36
2023-03-02T18:58:20.733Z,5.32
2023-03-02T19:00:28.225Z,5.31
2023-03-02T19:02:32.255Z,5.27
2023-03-02T19:04:35.256Z,5.26
2023-03-02T19:06:37.856Z,5.31
2023-03-02T19:08:40.916Z,5.24
2023-03-02T19:10:43.496Z,5.28
2023-03-02T19:12:46.321Z,5.27
2023-03-02T19:14:48.931Z,5.26
2023-03-02T19:16:51.818Z,5.15
2023-03-02T19:18:55.872Z,5.16
2023-03-02T19:20:58.612Z,5.07
2023-03-02T19:23:01.696Z,5.05
2023-03-02T19:25:04.694Z,5.06
2023-03-02T19:27:07.337Z,4.96
2023-03-02T19:29:09.926Z,4.99
2023-03-02T19:31:13.789Z,4.95
2023-03-02T19:33:16.585Z,4.86
2023-03-02T19:35:21.873Z,4.82
2023-03-02T19:37:24.478Z,4.77
2023-03-02T19:39:27.228Z,4.76
2023-03-02T19:41:29.894Z,4.75
2023-03-02T19:43:32.956Z,4.72
2023-03-02T19:45:36.232Z,4.69
2023-03-02T19:47:39.002Z,4.68
2023-03-02T19:49:41.602Z,4.64
2023-03-02T19:51:45.509Z,4.65
2023-03-02T19:53:48.114Z,4.66
2023-03-02T19:55:51.440Z,4.62
2023-03-02T19:58:01.014Z,4.63
2023-03-02T20:00:03.930Z,4.60
2023-03-02T20:02:06.546Z,4.55
2023-03-02T20:04:09.305Z,4.56
2023-03-02T20:06:11.901Z,4.49
2023-03-02T20:08:16.839Z,4.44
2023-03-02T20:10:31.117Z,4.48
2023-03-02T20:12:34.019Z,4.66
2023-03-02T20:14:38.520Z,4.51
2023-03-02T20:16:41.320Z,4.50
2023-03-02T20:18:45.538Z,4.42
2023-03-02T20:20:48.572Z,4.41
2023-03-02T20:22:51.270Z,4.37
2023-03-02T20:24:55.194Z,4.37
2023-03-02T20:26:57.846Z,4.33
2023-03-02T20:29:03.633Z,4.32
2023-03-02T20:31:11.920Z,4.33
2023-03-02T20:33:16.069Z,4.34
2023-03-02T20:35:18.870Z,4.32
2023-03-02T20:37:22.559Z,4.31
2023-03-02T20:39:28.382Z,4.31
2023-03-02T20:41:32.727Z,4.31
2023-03-02T20:43:35.394Z,4.30
2023-03-02T20:45:38.116Z,4.27
2023-03-02T20:47:40.898Z,4.29
2023-03-02T20:49:43.578Z,4.29
2023-03-02T20:51:52.718Z,4.33
2023-03-02T20:53:55.580Z,4.29
2023-03-02T20:55:58.262Z,4.29
2023-03-02T20:58:05.326Z,4.30
2023-03-02T21:00:11.566Z,4.31
2023-03-02T21:02:14.918Z,4.36
2023-03-02T21:04:17.877Z,4.34
2023-03-02T21:06:20.591Z,4.36
2023-03-02T21:08:23.222Z,4.38
2023-03-02T21:10:29.398Z,4.51
2023-03-02T21:12:33.139Z,4.50
2023-03-02T21:14:37.196Z,4.63
2023-03-02T21:16:40.045Z,4.64
2023-03-02T21:18:42.655Z,4.55
2023-03-02T21:20:45.355Z,4.44
2023-03-02T21:22:48.096Z,4.37
2023-03-02T21:24:52.759Z,4.37
2023-03-02T21:26:55.804Z,4.36
2023-03-02T21:28:58.412Z,4.32
2023-03-02T21:31:02.387Z,4.35
2023-03-02T21:33:05.150Z,4.37
2023-03-02T21:35:08.080Z,4.38
2023-03-02T21:37:10.691Z,4.41
2023-03-02T21:39:14.009Z,4.43
2023-03-02T21:41:17.267Z,4.63
2023-03-02T21:43:20.144Z,4.54
2023-03-02T21:45:23.034Z,4.48
2023-03-02T21:47:26.931Z,4.51
2023-03-02T21:49:29.540Z,4.44
2023-03-02T21:51:32.592Z,4.50
2023-03-02T21:53:35.332Z,4.47
2023-03-02T21:55:38.171Z,4.40
2023-03-02T21:57:41.173Z,4.38
2023-03-02T21:59:44.004Z,4.36
2023-03-02T22:01:46.610Z,4.37
2023-03-02T22:03:50.967Z,4.39
2023-03-02T22:05:53.657Z,4.49
2023-03-02T22:07:56.268Z,4.52
2023-03-02T22:09:58.997Z,4.56
2023-03-02T22:12:01.558Z,4.52
2023-03-02T22:14:12.173Z,4.48
2023-03-02T22:16:16.719Z,4.41
2023-03-02T22:18:22.311Z,4.34
2023-03-02T22:20:26.420Z,4.32
2023-03-02T22:22:30.848Z,4.28
2023-03-02T22:24:34.813Z,4.27
2023-03-02T22:26:40.110Z,4.27
2023-03-02T22:28:42.768Z,4.53
2023-03-02T22:30:45.633Z,4.33
2023-03-02T22:32:48.821Z,4.29
2023-03-02T22:34:53.369Z,4.28
2023-03-02T22:37:07.387Z,4.25
2023-03-02T22:39:16.439Z,4.19
2023-03-02T22:41:20.704Z,4.18
2023-03-02T22:43:26.357Z,4.19
2023-03-02T22:45:29.984Z,4.18
2023-03-02T22:47:33.176Z,4.19
2023-03-02T22:49:35.737Z,4.16
2023-03-02T22:51:38.318Z,4.13
2023-03-02T22:53:47.269Z,4.15
2023-03-02T22:55:49.907Z,4.15
2023-03-02T22:57:52.484Z,4.20
2023-03-02T23:00:21.212Z,4.24
2023-03-02T23:02:26.138Z,4.25
2023-03-02T23:04:32.511Z,4.28
2023-03-02T23:06:42.352Z,4.31
2023-03-02T23:08:46.324Z,4.32
2023-03-02T23:10:49.600Z,4.34
2023-03-02T23:12:52.975Z,4.33
2023-03-02T23:14:57.210Z,4.33
2023-03-02T23:17:01.819Z,4.30
2023-03-02T23:19:05.543Z,4.30
2023-03-02T23:21:16.187Z,4.33
2023-03-02T23:23:18.857Z,4.36
2023-03-02T23:25:22.747Z,4.39
2023-03-02T23:27:25.848Z,4.35
2023-03-02T23:29:28.430Z,4.35
2023-03-02T23:31:31.367Z,4.37
2023-03-02T23:33:34.861Z,4.30
2023-03-02T23:35:37.483Z,4.29
2023-03-02T23:37:40.674Z,4.30
2023-03-02T23:39:45.919Z,4.31
2023-03-02T23:41:50.049Z,4.35
2023-03-02T23:43:52.695Z,4.32
2023-03-02T23:45:56.096Z,4.33
2023-03-02T23:47:59.077Z,4.36
2023-03-02T23:50:01.659Z,4.35
2023-03-02T23:52:05.591Z,4.33
2023-03-02T23:54:08.170Z,4.38
2023-03-02T23:56:11.328Z,4.36
2023-03-02T23:58:15.373Z,4.37
